Time;durP1;ratioP1;P1;durP2;ratioP2;P2;SDS_P1;SDS_P2;PMS_P1;PMS_P2;Temp;Humidity;BMP_temperature;BMP_pressure;BME280_temperature;BME280_humidity;BME280_pressure;Samples;Min_cycle;Max_cycle;Signal;HPM_P1;HPM_P2
2023/11/06 00:00:31;;;;;;;9.55;7.07;;;;;;;10.03;76.39;97967.91;5112576;28;20027;-64
2023/11/06 00:02:58;;;;;;;10.98;7.70;;;;;;;10.04;75.97;97961.56;5112285;28;20031;-66
2023/11/06 00:05:24;;;;;;;12.70;7.90;;;;;;;9.95;76.52;97968.72;5113138;28;20037;-63
2023/11/06 00:07:50;;;;;;;12.32;8.55;;;;;;;9.94;76.63;97961.72;5112473;28;20106;-64
2023/11/06 00:10:15;;;;;;;11.48;8.70;;;;;;;9.86;77.16;97946.50;5112615;28;20099;-65
2023/11/06 00:12:41;;;;;;;13.70;9.32;;;;;;;10.09;76.36;97950.38;5112546;28;20418;-65
2023/11/06 00:15:09;;;;;;;11.93;8.32;;;;;;;9.99;76.81;97950.53;5112362;28;20422;-65
2023/11/06 00:17:36;;;;;;;15.02;8.57;;;;;;;9.71;77.17;97913.44;5112398;28;20053;-63
2023/11/06 00:20:03;;;;;;;13.68;8.95;;;;;;;10.00;77.05;97949.53;5112452;28;20028;-65
2023/11/06 00:22:30;;;;;;;15.90;8.98;;;;;;;10.01;77.53;97945.84;5112049;28;20028;-64
2023/11/06 00:24:56;;;;;;;10.15;8.27;;;;;;;10.02;77.29;97942.16;5112742;28;20080;-65
2023/11/06 00:27:25;;;;;;;10.18;8.18;;;;;;;9.81;77.33;97891.88;5112046;28;20131;-64
2023/11/06 00:29:51;;;;;;;11.10;8.85;;;;;;;10.07;77.53;97947.84;5111801;28;20073;-64
2023/11/06 00:32:17;;;;;;;11.00;8.55;;;;;;;10.10;77.30;97938.66;5112890;28;20469;-65
2023/11/06 00:34:43;;;;;;;12.30;9.10;;;;;;;10.13;76.90;97930.31;5112349;28;20446;-63
2023/11/06 00:37:11;;;;;;;14.60;8.10;;;;;;;10.12;77.34;97929.47;5112367;28;20144;-64
2023/11/06 00:39:37;;;;;;;11.55;8.80;;;;;;;10.10;77.58;97925.31;5112096;28;20059;-64
2023/11/06 00:42:04;;;;;;;11.63;8.18;;;;;;;10.13;77.44;97928.47;5111681;28;20404;-65
2023/11/06 00:44:30;;;;;;;10.85;8.02;;;;;;;10.14;77.44;97921.28;5114949;28;20028;-65
2023/11/06 00:46:56;;;;;;;10.45;8.15;;;;;;;10.10;77.51;97918.09;5115750;28;20031;-64
2023/11/06 00:49:21;;;;;;;9.05;7.70;;;;;;;10.14;77.61;97916.78;5115596;28;20035;-63
2023/11/06 00:51:47;;;;;;;10.75;7.97;;;;;;;10.12;77.45;97912.59;5116471;28;20097;-64
2023/11/06 00:54:15;;;;;;;8.68;7.78;;;;;;;10.13;77.66;97920.47;5115756;28;20399;-64
2023/11/06 00:56:41;;;;;;;10.60;8.60;;;;;;;10.09;77.89;97908.41;5115657;28;20031;-64
2023/11/06 00:59:06;;;;;;;9.65;8.63;;;;;;;10.22;77.52;97920.44;5115266;28;20475;-64
2023/11/06 01:01:32;;;;;;;14.35;9.27;;;;;;;9.96;78.08;97873.34;5095195;28;20046;-64
2023/11/06 01:03:58;;;;;;;11.88;8.75;;;;;;;10.22;77.86;97920.44;5095140;28;20481;-64
2023/11/06 01:06:24;;;;;;;11.07;9.05;;;;;;;10.22;77.92;97902.53;5095022;28;20028;-65
2023/11/06 01:08:49;;;;;;;12.35;8.95;;;;;;;10.19;78.16;97902.88;5094727;28;20050;-65
2023/11/06 01:11:15;;;;;;;10.52;8.82;;;;;;;10.24;77.97;97903.22;5094540;28;20028;-65
2023/11/06 01:13:41;;;;;;;12.32;9.43;;;;;;;10.32;77.41;97902.38;5095022;28;20032;-64
2023/11/06 01:16:09;;;;;;;10.98;9.52;;;;;;;10.29;77.93;97905.38;5111485;28;20457;-64
2023/11/06 01:18:34;;;;;;;12.57;9.55;;;;;;;10.29;78.06;97897.34;5114722;28;20074;-65
2023/11/06 01:21:00;;;;;;;14.15;10.90;;;;;;;10.29;78.09;97892.00;5114347;28;20052;-64
2023/11/06 01:23:27;;;;;;;11.80;10.55;;;;;;;10.34;77.90;97900.34;5114076;28;20039;-63
2023/11/06 01:25:52;;;;;;;15.38;10.98;;;;;;;10.38;78.05;97893.69;5114881;27;20186;-62
2023/11/06 01:28:18;;;;;;;12.50;10.60;;;;;;;10.39;78.04;97881.97;5115425;28;20505;-64
2023/11/06 01:30:44;;;;;;;13.57;10.93;;;;;;;10.48;77.88;97882.78;5115281;28;20080;-64
2023/11/06 01:33:10;;;;;;;12.82;10.98;;;;;;;10.45;78.19;97875.13;5114464;27;20127;-65
2023/11/06 01:35:37;;;;;;;15.13;11.60;;;;;;;10.47;77.97;97871.28;5114836;28;20118;-63
2023/11/06 01:38:02;;;;;;;13.43;10.52;;;;;;;10.53;77.85;97871.59;5115382;28;20141;-65
2023/11/06 01:40:30;;;;;;;13.93;10.35;;;;;;;10.52;78.22;97875.28;5114480;28;20031;-64
2023/11/06 01:42:55;;;;;;;13.85;10.85;;;;;;;10.58;78.03;97864.72;5115031;28;20047;-64
2023/11/06 01:45:21;;;;;;;15.38;11.05;;;;;;;10.55;77.79;97858.88;5114679;28;20023;-65
2023/11/06 01:47:47;;;;;;;11.70;9.88;;;;;;;10.61;78.34;97863.56;5114643;28;20080;-64
2023/11/06 01:50:15;;;;;;;13.82;10.02;;;;;;;10.66;78.21;97869.22;5115147;28;20142;-64
2023/11/06 01:52:42;;;;;;;14.80;10.05;;;;;;;10.66;78.12;97860.34;5114106;28;20033;-64
2023/11/06 01:55:09;;;;;;;11.93;9.88;;;;;;;10.72;78.18;97871.19;5113829;28;20210;-65
2023/11/06 01:57:35;;;;;;;12.10;10.10;;;;;;;10.52;78.14;97835.13;5114500;28;20077;-64
2023/11/06 02:00:01;;;;;;;11.40;10.23;;;;;;;10.70;78.69;97875.88;5114315;28;20539;-65
2023/11/06 02:02:30;;;;;;;11.18;9.98;;;;;;;10.74;78.52;97869.19;5093784;28;20039;-64
2023/11/06 02:04:56;;;;;;;12.25;9.90;;;;;;;10.79;78.30;97878.53;5114088;28;20035;-63
2023/11/06 02:07:22;;;;;;;11.15;9.93;;;;;;;10.82;78.36;97875.50;5115022;28;20042;-64
2023/11/06 02:09:47;;;;;;;12.23;9.90;;;;;;;10.85;78.38;97876.00;5113771;28;20039;-64
2023/11/06 02:12:13;;;;;;;10.95;9.82;;;;;;;10.68;78.48;97840.44;5113656;28;20050;-64
2023/11/06 02:14:52;;;;;;;12.80;10.15;;;;;;;10.97;78.50;97878.28;5114004;28;20031;-64
2023/11/06 02:17:19;;;;;;;10.85;9.52;;;;;;;10.87;78.50;97876.66;5113592;28;20339;-64
2023/11/06 02:19:46;;;;;;;10.90;9.50;;;;;;;10.89;78.63;97877.31;5114513;28;20051;-65
2023/11/06 02:22:18;;;;;;;11.20;9.60;;;;;;;10.99;78.71;97876.28;5114398;28;20081;-65
2023/11/06 02:24:44;;;;;;;12.25;9.75;;;;;;;11.05;78.03;97879.06;5113725;28;20032;-64
2023/11/06 02:27:10;;;;;;;10.63;9.48;;;;;;;10.98;78.57;97879.97;5114242;28;20440;-65
2023/11/06 02:29:35;;;;;;;10.52;8.82;;;;;;;10.81;78.64;97847.06;5114323;27;20119;-64
2023/11/06 02:32:04;;;;;;;10.02;8.60;;;;;;;11.09;78.76;97873.34;5113778;28;20130;-65
2023/11/06 02:34:30;;;;;;;10.55;8.63;;;;;;;11.09;79.18;97886.75;5113354;28;20024;-64
2023/11/06 02:36:55;;;;;;;9.93;7.70;;;;;;;10.94;79.09;97846.50;5113500;28;20042;-65
2023/11/06 02:39:21;;;;;;;11.48;8.85;;;;;;;11.17;78.88;97878.69;5113856;28;20335;-64
2023/11/06 02:41:47;;;;;;;10.63;8.38;;;;;;;11.15;79.10;97859.28;5112651;28;20131;-64
2023/11/06 02:44:13;;;;;;;9.07;7.75;;;;;;;11.21;79.15;97866.63;5113653;28;20028;-65
2023/11/06 02:46:39;;;;;;;8.60;7.70;;;;;;;11.19;79.30;97858.75;5113629;28;20124;-64
2023/11/06 02:49:04;;;;;;;9.43;7.68;;;;;;;11.34;79.33;97872.25;5113567;28;20093;-65
2023/11/06 02:51:31;;;;;;;9.15;7.43;;;;;;;11.39;79.00;97869.00;5112834;28;20342;-64
2023/11/06 02:53:56;;;;;;;9.35;7.50;;;;;;;11.34;79.26;97858.00;5113983;28;20039;-64
2023/11/06 02:56:23;;;;;;;8.35;7.55;;;;;;;11.34;79.11;97858.84;5112944;28;20434;-66
2023/11/06 02:58:48;;;;;;;8.38;7.35;;;;;;;11.50;79.02;97873.13;5113484;28;20055;-66
2023/11/06 03:01:14;;;;;;;8.07;6.93;;;;;;;11.52;78.99;97876.44;5113657;28;20067;-64
2023/11/06 03:03:40;;;;;;;5.95;5.35;;;;;;;11.56;79.17;97866.22;5113350;28;20034;-64
2023/11/06 03:06:06;;;;;;;5.72;4.95;;;;;;;11.63;78.53;97877.88;5112745;28;20111;-65
2023/11/06 03:08:32;;;;;;;4.82;3.85;;;;;;;11.67;78.42;97881.06;5113207;28;20027;-65
2023/11/06 03:11:00;;;;;;;3.67;3.30;;;;;;;11.68;78.14;97872.00;5111915;28;20051;-63
2023/11/06 03:13:26;;;;;;;4.60;2.85;;;;;;;11.70;77.75;97889.59;5113377;28;20023;-64
2023/11/06 03:15:51;;;;;;;3.17;2.28;;;;;;;11.75;77.37;97875.63;5112974;28;20027;-65
2023/11/06 03:18:17;;;;;;;3.58;2.60;;;;;;;11.69;77.38;97885.22;5113492;28;20031;-65
2023/11/06 03:20:42;;;;;;;5.50;3.45;;;;;;;11.54;77.28;97858.34;5113024;28;20023;-65
2023/11/06 03:23:08;;;;;;;4.85;3.20;;;;;;;11.51;76.99;97857.88;5113059;28;20438;-65
2023/11/06 03:25:33;;;;;;;5.43;3.20;;;;;;;11.61;77.58;97885.28;5112743;28;20472;-64
2023/11/06 03:27:59;;;;;;;3.90;2.53;;;;;;;11.66;76.67;97900.84;5113212;28;20047;-62
2023/11/06 03:30:24;;;;;;;2.30;1.70;;;;;;;11.62;76.26;97903.03;5112706;28;20028;-65
2023/11/06 03:32:51;;;;;;;2.10;1.33;;;;;;;11.52;75.68;97887.19;5112990;28;20035;-64
2023/11/06 03:35:17;;;;;;;1.20;0.80;;;;;;;11.51;74.44;97896.22;5113377;28;20092;-64
2023/11/06 03:37:43;;;;;;;1.40;0.60;;;;;;;11.43;74.03;97915.88;5112644;28;20095;-65
2023/11/06 03:40:09;;;;;;;2.17;0.50;;;;;;;11.36;72.65;97914.91;5112748;28;20458;-64
2023/11/06 03:42:35;;;;;;;0.52;0.47;;;;;;;10.90;72.99;97883.50;5113388;28;20075;-64
2023/11/06 03:45:00;;;;;;;0.85;0.30;;;;;;;11.03;72.31;97915.91;5112286;28;20040;-62
2023/11/06 03:47:26;;;;;;;0.20;0.13;;;;;;;10.93;72.00;97909.94;5113258;28;20031;-65
2023/11/06 03:49:51;;;;;;;0.10;0.10;;;;;;;10.94;71.51;97911.59;5112377;28;20045;-65
2023/11/06 03:52:17;;;;;;;0.50;0.17;;;;;;;10.95;71.29;97910.59;5112607;28;20028;-65
2023/11/06 03:54:42;;;;;;;0.20;0.10;;;;;;;10.91;71.30;97930.69;5112007;28;20065;-66
2023/11/06 03:57:08;;;;;;;0.10;0.10;;;;;;;10.88;71.66;97921.16;5112949;28;20422;-65
2023/11/06 03:59:34;;;;;;;0.22;0.22;;;;;;;10.80;71.77;97905.13;5112201;28;20481;-64
2023/11/06 04:01:59;;;;;;;0.70;0.30;;;;;;;10.89;71.50;97930.03;5112698;28;20081;-64
2023/11/06 04:04:25;;;;;;;0.75;0.30;;;;;;;10.68;71.78;97896.63;5112729;28;20031;-63
2023/11/06 04:06:50;;;;;;;0.68;0.30;;;;;;;10.75;71.88;97919.03;5112412;28;20061;-64
2023/11/06 04:09:16;;;;;;;0.82;0.30;;;;;;;10.87;72.27;97937.41;5112651;28;20442;-64
2023/11/06 04:11:42;;;;;;;0.38;0.30;;;;;;;10.84;72.56;97943.06;5111919;28;20031;-64
2023/11/06 04:14:07;;;;;;;0.45;0.30;;;;;;;10.82;72.51;97953.13;5112162;28;20079;-64
2023/11/06 04:16:33;;;;;;;0.52;0.40;;;;;;;10.80;72.76;97957.81;5112460;28;20030;-62
2023/11/06 04:18:59;;;;;;;0.32;0.30;;;;;;;10.77;73.17;97975.91;5114971;28;20041;-64
2023/11/06 04:21:28;;;;;;;0.88;0.70;;;;;;;10.71;71.26;97986.44;5115515;28;20354;-63
2023/11/06 04:23:53;;;;;;;0.55;0.50;;;;;;;10.61;71.40;97963.38;5116854;28;20730;-63
2023/11/06 04:26:19;;;;;;;2.00;0.57;;;;;;;10.42;71.40;97964.59;5116469;28;20055;-64
2023/11/06 04:28:45;;;;;;;0.88;0.50;;;;;;;10.35;71.28;97952.84;5116325;28;20071;-64
2023/11/06 04:31:10;;;;;;;0.63;0.40;;;;;;;10.32;71.71;97961.22;5115840;28;20091;-64
2023/11/06 04:33:36;;;;;;;1.75;0.43;;;;;;;10.32;71.69;97967.41;5116364;28;20027;-64
2023/11/06 04:36:01;;;;;;;2.33;0.55;;;;;;;10.28;71.01;97959.88;5116800;28;20054;-64
2023/11/06 04:38:27;;;;;;;0.57;0.50;;;;;;;10.32;70.49;97980.78;5116258;28;20042;-64
2023/11/06 04:40:52;;;;;;;0.93;0.60;;;;;;;10.34;70.09;97975.25;5116168;28;20487;-63
2023/11/06 04:43:18;;;;;;;2.97;0.73;;;;;;;10.15;69.97;97963.91;5115604;28;20038;-64
2023/11/06 04:45:43;;;;;;;1.27;0.80;;;;;;;10.31;69.89;97987.13;5115464;28;20038;-62
2023/11/06 04:48:09;;;;;;;1.95;0.80;;;;;;;10.36;69.08;97991.16;5114646;28;20038;-64
2023/11/06 04:50:36;;;;;;;0.85;0.70;;;;;;;10.38;68.40;97987.31;5115248;28;20399;-65
2023/11/06 04:53:02;;;;;;;1.50;0.88;;;;;;;10.31;68.84;97995.16;5115495;28;20043;-63
2023/11/06 04:55:28;;;;;;;1.38;0.95;;;;;;;10.29;68.70;97991.81;5115396;28;20095;-62
2023/11/06 04:57:54;;;;;;;1.20;0.73;;;;;;;10.28;68.91;97987.47;5116153;27;20553;-63
2023/11/06 05:00:19;;;;;;;2.55;1.00;;;;;;;10.27;68.83;97998.34;5115177;28;20028;-62
2023/11/06 05:02:45;;;;;;;1.00;0.77;;;;;;;10.29;68.66;97978.44;5115858;28;20028;-61
2023/11/06 05:05:11;;;;;;;1.10;1.00;;;;;;;10.29;69.12;97986.47;5115864;27;20031;-63
2023/11/06 05:07:36;;;;;;;1.63;0.90;;;;;;;10.10;68.93;97952.84;5114692;28;20043;-63
2023/11/06 05:10:05;;;;;;;1.85;1.10;;;;;;;10.34;69.10;98002.84;5115568;28;20024;-63
2023/11/06 05:12:31;;;;;;;2.08;1.30;;;;;;;10.28;69.04;97990.16;5114899;28;20035;-63
2023/11/06 05:14:57;;;;;;;2.72;1.00;;;;;;;10.36;69.09;98000.00;5114713;28;20038;-63
2023/11/06 05:17:22;;;;;;;1.95;1.20;;;;;;;10.18;69.41;97966.25;5113935;28;20322;-59
2023/11/06 05:19:48;;;;;;;1.10;0.82;;;;;;;10.42;69.63;98002.06;5114202;28;20088;-62
2023/11/06 05:22:13;;;;;;;3.15;0.90;;;;;;;10.43;69.85;98000.19;5114404;28;20027;-59
2023/11/06 05:24:41;;;;;;;1.52;0.80;;;;;;;10.34;70.04;97999.31;5114253;27;20030;-68
2023/11/06 05:27:07;;;;;;;1.33;0.80;;;;;;;10.24;70.64;97985.28;5114067;28;20119;-62
2023/11/06 05:29:33;;;;;;;1.85;0.60;;;;;;;10.29;70.83;97993.66;5113282;28;20357;-64
2023/11/06 05:31:59;;;;;;;1.20;0.82;;;;;;;10.25;71.01;97978.94;5113963;28;20027;-62
2023/11/06 05:34:25;;;;;;;1.02;0.70;;;;;;;10.30;70.58;97989.97;5114580;28;20111;-63
2023/11/06 05:36:50;;;;;;;3.08;0.88;;;;;;;10.32;70.61;97994.16;5114375;28;20024;-63
2023/11/06 05:39:16;;;;;;;1.30;0.70;;;;;;;10.34;70.49;97991.31;5114981;28;20042;-63
2023/11/06 05:41:46;;;;;;;1.63;0.70;;;;;;;10.26;70.70;97978.78;5114540;28;20092;-64
2023/11/06 05:44:13;;;;;;;2.10;0.73;;;;;;;10.31;70.44;97992.50;5114378;28;20145;-62
2023/11/06 05:46:39;;;;;;;1.92;0.80;;;;;;;10.34;70.91;97996.66;5114672;28;20032;-63
2023/11/06 05:49:04;;;;;;;3.05;0.85;;;;;;;10.38;70.52;97994.50;5115254;28;20331;-62
2023/11/06 05:51:30;;;;;;;2.60;0.77;;;;;;;10.44;70.06;97999.19;5115203;28;20108;-62
2023/11/06 05:53:56;;;;;;;1.67;0.65;;;;;;;10.45;69.89;98000.84;5114351;28;20128;-62
2023/11/06 05:56:21;;;;;;;2.53;0.77;;;;;;;10.51;69.10;97996.69;5113366;28;20030;-63
2023/11/06 05:58:48;;;;;;;2.95;0.90;;;;;;;10.50;69.65;98003.88;5114899;28;20027;-63
2023/11/06 06:01:13;;;;;;;1.80;0.90;;;;;;;10.52;69.67;98015.25;5113961;28;20388;-63
2023/11/06 06:03:39;;;;;;;2.08;0.60;;;;;;;10.56;69.18;98007.72;5114460;28;20027;-61
2023/11/06 06:06:05;;;;;;;1.75;0.50;;;;;;;10.59;68.70;97988.63;5114175;28;20028;-62
2023/11/06 06:08:30;;;;;;;0.63;0.50;;;;;;;10.68;68.88;97992.13;5114070;28;20046;-63
2023/11/06 06:10:56;;;;;;;1.20;0.55;;;;;;;10.72;68.68;98001.50;5113370;28;20343;-63
2023/11/06 06:13:22;;;;;;;0.60;0.40;;;;;;;10.67;68.32;97980.63;5113629;28;20035;-64
2023/11/06 06:15:48;;;;;;;3.58;0.80;;;;;;;10.69;69.02;97993.81;5112534;28;20016;-62
2023/11/06 06:18:13;;;;;;;0.90;0.43;;;;;;;10.71;69.22;97995.31;5112887;28;20023;-63
2023/11/06 06:20:39;;;;;;;3.17;0.50;;;;;;;10.76;68.74;97984.94;5113386;28;20123;-64
2023/11/06 06:23:04;;;;;;;1.67;0.82;;;;;;;10.80;68.99;97989.94;5114201;28;20039;-63
2023/11/06 06:25:30;;;;;;;3.00;0.60;;;;;;;10.77;68.95;97996.50;5113622;28;20118;-64
2023/11/06 06:27:55;;;;;;;1.02;0.65;;;;;;;10.79;68.57;97993.63;5113596;28;20326;-63
2023/11/06 06:30:21;;;;;;;3.53;0.80;;;;;;;10.77;69.30;97999.16;5113710;28;20042;-64
2023/11/06 06:32:46;;;;;;;2.35;0.90;;;;;;;10.80;68.74;97980.09;5113711;28;20096;-63
2023/11/06 06:35:12;;;;;;;1.42;1.02;;;;;;;11.01;67.85;97981.38;5112293;28;20114;-63
2023/11/06 06:37:38;;;;;;;1.10;1.00;;;;;;;11.08;67.51;97974.31;5113790;28;20027;-62
2023/11/06 06:40:08;;;;;;;2.05;1.20;;;;;;;11.22;67.38;97980.78;5113573;28;20392;-63
2023/11/06 06:42:34;;;;;;;3.00;1.30;;;;;;;11.11;66.81;97944.50;5113421;28;20035;-62
2023/11/06 06:45:00;;;;;;;1.92;1.50;;;;;;;11.36;66.45;97973.03;5113865;28;20031;-63
2023/11/06 06:47:26;;;;;;;1.48;1.23;;;;;;;11.28;66.79;97981.94;5113511;28;20125;-61
2023/11/06 06:49:51;;;;;;;1.85;1.48;;;;;;;11.26;66.82;97982.09;5113915;28;20059;-63
2023/11/06 06:52:17;;;;;;;3.67;1.67;;;;;;;11.16;66.90;97960.06;5114003;28;20411;-64
2023/11/06 06:54:42;;;;;;;3.10;1.75;;;;;;;11.23;67.12;97977.09;5113613;28;20023;-63
2023/11/06 06:57:09;;;;;;;2.70;2.20;;;;;;;11.20;67.64;97970.22;5114085;28;20391;-62
2023/11/06 06:59:35;;;;;;;3.60;2.65;;;;;;;11.22;67.00;97969.25;5113245;28;20040;-63
2023/11/06 07:02:01;;;;;;;4.22;2.85;;;;;;;11.23;67.14;97970.91;5112905;28;20063;-63
2023/11/06 07:04:27;;;;;;;3.88;2.90;;;;;;;11.22;67.51;97980.78;5113097;28;20107;-63
2023/11/06 07:06:52;;;;;;;3.80;2.97;;;;;;;11.27;67.19;97980.28;5112664;28;20046;-62
2023/11/06 07:09:18;;;;;;;4.60;3.17;;;;;;;11.30;67.24;97972.69;5113030;28;20361;-62
2023/11/06 07:11:43;;;;;;;6.35;2.90;;;;;;;11.26;67.67;97976.75;5112225;28;20095;-62
2023/11/06 07:14:09;;;;;;;4.78;3.30;;;;;;;11.26;67.51;97967.88;5113343;28;20085;-63
2023/11/06 07:16:35;;;;;;;9.35;3.88;;;;;;;11.32;67.61;97965.31;5112588;28;20024;-63
2023/11/06 07:19:00;;;;;;;6.75;3.60;;;;;;;11.27;67.94;97956.16;5112154;28;20198;-63
2023/11/06 07:21:26;;;;;;;10.05;3.45;;;;;;;11.38;67.85;97969.16;5112547;28;20366;-63
2023/11/06 07:23:51;;;;;;;6.88;3.80;;;;;;;11.39;68.04;97973.50;5112373;28;20032;-62
2023/11/06 07:26:17;;;;;;;7.38;4.15;;;;;;;11.42;67.92;97985.72;5112288;28;20414;-63
2023/11/06 07:28:44;;;;;;;7.90;4.22;;;;;;;11.38;68.28;97987.09;5112837;28;20032;-61
2023/11/06 07:31:09;;;;;;;6.60;4.05;;;;;;;11.30;68.47;97975.38;5112844;28;20112;-62
2023/11/06 07:33:35;;;;;;;8.10;4.35;;;;;;;11.30;68.61;97975.38;5112343;28;20106;-63
2023/11/06 07:36:01;;;;;;;6.00;4.20;;;;;;;11.36;68.56;97981.06;5112858;28;20173;-64
2023/11/06 07:38:26;;;;;;;7.05;3.80;;;;;;;11.30;69.36;97964.66;5112660;28;20076;-64
2023/11/06 07:40:52;;;;;;;6.20;4.00;;;;;;;11.34;68.97;97971.38;5112027;28;20038;-63
2023/11/06 07:43:17;;;;;;;4.55;3.90;;;;;;;11.36;69.10;97963.13;5111959;28;20035;-62
2023/11/06 07:45:43;;;;;;;7.32;4.65;;;;;;;11.42;68.79;97996.44;5112994;28;20450;-55
2023/11/06 07:48:08;;;;;;;5.50;4.55;;;;;;;11.40;68.55;98017.22;5113270;28;20507;-64
2023/11/06 07:50:34;;;;;;;7.82;4.50;;;;;;;11.29;69.18;98005.84;5112815;28;20457;-60
2023/11/06 07:53:01;;;;;;;6.43;4.57;;;;;;;11.16;69.44;97989.53;5115263;28;20037;-64
2023/11/06 07:55:26;;;;;;;5.53;4.57;;;;;;;11.10;70.07;97991.03;5120008;27;20431;-64
2023/11/06 07:57:52;;;;;;;6.35;5.05;;;;;;;11.15;70.11;97995.88;5119976;27;20123;-64
2023/11/06 08:00:18;;;;;;;7.07;5.50;;;;;;;11.18;70.11;97990.19;5119834;27;20287;-63
2023/11/06 08:02:44;;;;;;;10.43;5.30;;;;;;;10.98;70.38;97953.09;5119602;27;20085;-58
2023/11/06 08:05:10;;;;;;;8.07;5.68;;;;;;;11.13;70.30;97969.25;5120235;27;20039;-63
2023/11/06 08:07:36;;;;;;;7.68;6.38;;;;;;;11.22;70.39;97983.47;5119548;27;20413;-63
2023/11/06 08:10:03;;;;;;;9.27;5.97;;;;;;;11.27;70.08;97981.09;5119466;27;20035;-63
2023/11/06 08:12:30;;;;;;;9.88;6.35;;;;;;;11.31;70.27;97982.41;5119611;27;20036;-63
2023/11/06 08:14:55;;;;;;;10.18;7.07;;;;;;;11.34;70.01;97992.81;5119434;27;20088;-62
2023/11/06 08:17:21;;;;;;;10.23;7.13;;;;;;;11.33;70.04;97982.25;5118948;27;20366;-63
2023/11/06 08:19:47;;;;;;;7.95;6.65;;;;;;;11.21;70.30;97960.38;5118817;27;20032;-62
2023/11/06 08:22:12;;;;;;;11.32;7.03;;;;;;;11.39;70.74;97967.31;5118884;27;20032;-63
2023/11/06 08:24:38;;;;;;;8.30;7.32;;;;;;;11.38;70.87;97976.38;5118598;27;20039;-62
2023/11/06 08:27:05;;;;;;;7.22;6.43;;;;;;;11.41;70.97;97970.66;5118532;27;20048;-63
2023/11/06 08:29:30;;;;;;;12.13;7.13;;;;;;;11.47;70.93;97969.94;5118814;27;20043;-64
2023/11/06 08:31:59;;;;;;;11.73;7.35;;;;;;;11.46;71.31;97970.97;5117354;28;20031;-63
2023/11/06 08:34:26;;;;;;;10.50;7.38;;;;;;;11.26;71.83;97947.28;5118743;27;20442;-64
2023/11/06 08:36:51;;;;;;;9.40;7.57;;;;;;;11.42;71.76;97969.66;5118820;27;20395;-63
2023/11/06 08:39:17;;;;;;;11.88;7.30;;;;;;;11.35;72.38;97966.81;5118954;27;20088;-62
2023/11/06 08:41:44;;;;;;;12.35;7.40;;;;;;;11.40;72.46;97956.41;5119066;27;20023;-63
2023/11/06 08:44:09;;;;;;;11.15;6.95;;;;;;;11.49;72.33;97952.69;5119197;27;20085;-63
2023/11/06 08:46:35;;;;;;;9.52;6.82;;;;;;;11.56;72.11;97939.41;5118439;27;20039;-64
2023/11/06 08:49:00;;;;;;;13.15;7.55;;;;;;;11.11;71.69;97863.34;5118780;27;20028;-62
2023/11/06 08:51:29;;;;;;;10.25;7.05;;;;;;;11.68;71.54;97941.69;5117252;28;20031;-63
2023/11/06 08:53:54;;;;;;;10.98;6.78;;;;;;;11.63;71.49;97937.72;5119121;28;20023;-62
2023/11/06 08:56:21;;;;;;;10.60;6.55;;;;;;;11.65;71.64;97925.97;5118241;27;20031;-62
2023/11/06 08:58:46;;;;;;;9.32;6.68;;;;;;;11.67;71.67;97922.09;5118827;27;20041;-64
2023/11/06 09:01:12;;;;;;;10.10;6.60;;;;;;;11.75;71.24;97914.00;5118770;27;20027;-64
2023/11/06 09:03:39;;;;;;;7.95;6.30;;;;;;;11.75;71.46;97913.16;5118666;27;20381;-64
2023/11/06 09:06:05;;;;;;;7.95;5.95;;;;;;;11.80;71.09;97915.31;5115105;28;20039;-61
2023/11/06 09:08:31;;;;;;;10.07;6.20;;;;;;;11.83;70.69;97909.59;5115059;28;20107;-63
2023/11/06 09:10:57;;;;;;;7.78;6.45;;;;;;;11.86;70.91;97902.03;5114626;28;20023;-64
2023/11/06 09:13:22;;;;;;;8.50;6.13;;;;;;;11.89;70.73;97911.53;5115778;28;20391;-64
2023/11/06 09:15:49;;;;;;;10.32;7.32;;;;;;;11.90;70.31;97889.06;5114790;27;20040;-57
2023/11/06 09:18:19;;;;;;;11.23;6.88;;;;;;;11.95;70.43;97899.28;5115339;28;20426;-63
2023/11/06 09:20:48;;;;;;;9.63;6.90;;;;;;;11.93;70.67;97904.78;5114002;28;20058;-63
2023/11/06 09:23:14;;;;;;;11.02;7.50;;;;;;;11.86;70.60;97890.44;5115980;28;20023;-63
2023/11/06 09:25:40;;;;;;;12.23;7.63;;;;;;;11.82;70.77;97895.34;5114340;28;20036;-62
2023/11/06 09:28:06;;;;;;;11.52;7.53;;;;;;;11.75;70.97;97892.56;5114775;28;20126;-63
2023/11/06 09:30:32;;;;;;;9.80;7.28;;;;;;;11.85;71.18;97889.63;5115239;28;20426;-63
2023/11/06 09:32:59;;;;;;;9.23;8.15;;;;;;;11.78;70.67;97873.44;5115023;28;20046;-64
2023/11/06 09:35:25;;;;;;;13.35;7.97;;;;;;;11.70;70.66;97848.53;5114664;28;20051;-63
2023/11/06 09:37:50;;;;;;;17.90;9.07;;;;;;;11.92;70.45;97868.28;5114154;28;20118;-62
2023/11/06 09:40:21;;;;;;;10.75;8.98;;;;;;;11.99;70.70;97865.72;5115145;28;20036;-63
2023/11/06 09:42:47;;;;;;;13.55;8.73;;;;;;;12.03;70.30;97894.69;5114978;28;20031;-63
2023/11/06 09:45:14;;;;;;;10.73;8.98;;;;;;;12.03;70.06;97883.97;5114221;28;20051;-63
2023/11/06 09:47:51;;;;;;;11.13;9.07;;;;;;;12.08;70.43;97869.19;5113997;28;20531;-61
2023/11/06 09:50:19;;;;;;;13.02;9.23;;;;;;;12.11;70.12;97868.81;5114973;28;20023;-62
2023/11/06 09:52:48;;;;;;;13.73;9.55;;;;;;;12.14;69.93;97853.19;5114563;28;20042;-63
2023/11/06 09:55:18;;;;;;;12.02;9.50;;;;;;;12.18;69.96;97859.84;5114112;28;20055;-64
2023/11/06 09:57:48;;;;;;;13.38;9.57;;;;;;;12.09;70.14;97839.50;5114311;28;20038;-66
2023/11/06 10:00:16;;;;;;;15.35;10.13;;;;;;;12.20;69.99;97846.28;5114398;28;20439;-63
2023/11/06 10:02:43;;;;;;;13.20;10.30;;;;;;;12.23;70.13;97843.22;5114185;28;20505;-62
2023/11/06 10:05:15;;;;;;;15.00;10.30;;;;;;;12.25;69.77;97837.66;5107241;28;20043;-64
2023/11/06 10:07:43;;;;;;;13.85;10.60;;;;;;;12.40;69.37;97849.25;5113422;28;20032;-65
2023/11/06 10:10:16;;;;;;;13.45;10.38;;;;;;;12.40;69.55;97843.88;5113797;28;20032;-64
2023/11/06 10:12:42;;;;;;;14.45;10.43;;;;;;;12.30;69.54;97827.22;5113767;28;20024;-63
2023/11/06 10:15:11;;;;;;;15.85;11.35;;;;;;;12.45;68.95;97838.78;5112694;28;20027;-64
2023/11/06 10:17:38;;;;;;;15.13;11.25;;;;;;;12.22;69.12;97801.31;5113417;28;20449;-63
2023/11/06 10:20:13;;;;;;;15.60;11.13;;;;;;;12.42;69.31;97831.09;5113455;28;20351;-63
2023/11/06 10:22:56;;;;;;;16.60;12.05;;;;;;;12.56;69.32;97823.25;5113709;28;20107;-63
2023/11/06 10:25:28;;;;;;;17.42;10.90;;;;;;;12.49;69.59;97818.59;5113453;28;20039;-62
2023/11/06 10:27:56;;;;;;;16.55;11.50;;;;;;;12.52;69.28;97816.56;5113973;28;20494;-67
2023/11/06 10:30:22;;;;;;;18.83;12.57;;;;;;;12.58;69.07;97811.28;5112968;28;20031;-60
2023/11/06 10:32:48;;;;;;;18.60;12.93;;;;;;;12.66;69.05;97806.81;5114084;27;20042;-63
2023/11/06 10:35:15;;;;;;;19.27;12.52;;;;;;;12.70;68.86;97808.97;5113769;28;20039;-62
2023/11/06 10:37:42;;;;;;;18.50;13.20;;;;;;;12.77;68.90;97795.63;5113324;28;20031;-64
2023/11/06 10:40:18;;;;;;;20.75;13.75;;;;;;;12.80;68.92;97802.47;5112782;28;20024;-63
2023/11/06 10:42:47;;;;;;;25.10;14.05;;;;;;;12.92;68.58;97800.94;5112883;28;20039;-64
2023/11/06 10:45:17;;;;;;;22.20;14.13;;;;;;;12.82;68.71;97801.25;5113121;28;20035;-63
2023/11/06 10:47:52;;;;;;;19.40;14.45;;;;;;;12.80;69.29;97791.75;5112583;28;20024;-63
2023/11/06 10:50:23;;;;;;;22.45;14.35;;;;;;;12.87;69.09;97798.00;5102512;28;20028;-63
2023/11/06 10:52:59;;;;;;;19.70;13.93;;;;;;;12.81;69.43;97788.84;5113247;28;20144;-64
2023/11/06 10:55:26;;;;;;;20.65;14.00;;;;;;;12.69;69.09;97780.44;5112340;28;20043;-62
2023/11/06 10:57:53;;;;;;;23.52;15.00;;;;;;;12.62;69.62;97774.16;5108956;28;20027;-63
2023/11/06 11:00:23;;;;;;;22.65;14.57;;;;;;;12.72;69.60;97788.13;5113258;28;20023;-64
2023/11/06 11:02:50;;;;;;;18.65;14.30;;;;;;;12.61;69.96;97772.50;5113267;28;20027;-63
2023/11/06 11:05:23;;;;;;;21.30;14.02;;;;;;;12.59;70.12;97787.97;5111994;28;20139;-64
2023/11/06 11:07:53;;;;;;;19.60;14.40;;;;;;;12.57;70.02;97777.41;5112839;28;20054;-65
2023/11/06 11:10:22;;;;;;;23.13;13.38;;;;;;;12.59;69.82;97769.19;5112624;28;20031;-64
2023/11/06 11:12:55;;;;;;;25.17;14.52;;;;;;;12.63;69.68;97765.91;5112201;28;20031;-65
2023/11/06 11:15:30;;;;;;;22.55;14.68;;;;;;;12.57;70.34;97772.03;5113111;28;20032;-64
2023/11/06 11:18:04;;;;;;;18.70;14.20;;;;;;;12.53;70.54;97764.53;5113173;28;20031;-63
2023/11/06 11:20:50;;;;;;;24.63;14.75;;;;;;;12.56;70.72;97764.19;5112772;28;20065;-64
2023/11/06 11:23:15;;;;;;;19.33;14.35;;;;;;;12.46;70.54;97749.19;5112977;28;20082;-63
2023/11/06 11:25:54;;;;;;;21.42;15.00;;;;;;;12.63;70.28;97760.53;5093756;28;20066;-63